• Join FlightAware (Why Join?)
  • Login
  • US Flag 
08:56AM EDT


 

Airport Tracker/Info


-or-


 

Live Flight TrackerFlight Track Log ✈ SKW5631 ✈ 26-Apr-2013 ✈ KAUS - KSFO

Flight Track Log - Related Links

Times and Time Zones

All times are in EDT time to prevent confusion due to time zone crossing. See the SKW5631 flight status page for this flight to view local times or setup timezone preferences in your user account.

Time Position Orientation Groundspeed Altitude Reporting Facility
EDT Latitude Longitude Course Direction KTS MPH feet Rate Location/Type
03:46PM 30.1064 -97.7506 291° West 239 275 5,000  Level Houston Center
03:47PM 30.4505 -97.7637 293° West  Level FlightAware Approximate
03:47PM 30.1758 -97.8233 318° Northwest 283 326 8,400  Level Houston Center
03:48PM 30.4953 -97.8872 293° West  Level FlightAware Approximate
03:48PM 30.2336 -97.8883 316° Northwest 284 327 10,700  Level Houston Center
03:49PM 30.5374 -98.0119 291° West  Level FlightAware Approximate
03:49PM 30.2858 -97.9694 307° West 290 334 12,800  Level Houston Center
03:50PM 30.5791 -98.1370 291° West  Level FlightAware Approximate
03:50PM 30.3336 -98.0456 306° West 306 352 14,600  Level Houston Center
03:51PM 30.6207 -98.2621 291° West  Level FlightAware Approximate
03:51PM 30.3886 -98.1314 307° West 323 372 16,800  Level Houston Center
03:52PM 30.4417 -98.2142 307° West 319 367 19,000 1,920 Climbing Houston Center
03:53PM 30.4939 -98.2981 306° West 317 365 20,800 1,800 Climbing Houston Center
03:54PM 30.5481 -98.3833 306° West 323 372 22,800 1,860 Climbing Houston Center
03:55PM 30.6092 -98.4842 305° West 324 373 24,700 1,380 Climbing Houston Center
03:56PM 30.6661 -98.5753 306° West 340 391 25,700 1,200 Climbing Houston Center
03:57PM 30.7242 -98.6681 306° West 347 399 27,200 1,320 Climbing Houston Center
03:58PM 30.7817 -98.7622 305° West 353 406 28,500 1,200 Climbing Houston Center
03:59PM 30.8675 -98.8314 325° Northwest 376 433 29,700 960 Climbing Houston Center
04:00PM 30.9625 -98.8919 331° Northwest 383 441 30,600 660 Climbing Houston Center
04:01PM 31.0633 -98.9511 333° Northwest 398 458 31,100 600 Climbing Houston Center
04:02PM 31.1956 -99.0047 341° North 421 484 31,900 960 Climbing Houston Center
04:03PM 31.3092 -99.0508 341° North 426 490 33,100 1,020 Climbing Houston Center
04:04PM 31.4094 -99.1189 330° Northwest 411 473 34,100 840 Climbing Houston Center
04:05PM 31.5036 -99.1797 331° Northwest 407 468 34,900 600 Climbing Fort Worth Center
04:06PM 31.5986 -99.2525 327° Northwest 402 463 35,400 480 Climbing Fort Worth Center
04:07PM 31.6997 -99.3203 330° Northwest 402 463 35,900 480 Climbing Fort Worth Center
04:08PM 31.8011 -99.3883 330° Northwest 412 474 36,400 600 Climbing Fort Worth Center
04:09PM 31.9022 -99.4592 329° Northwest 417 480 37,200 780 Climbing Fort Worth Center
04:10PM 31.9992 -99.5250 330° Northwest 417 480 38,000 360 Climbing Fort Worth Center
04:11PM 32.0983 -99.5936 330° Northwest 417 480 38,000  Level Fort Worth Center
04:12PM 32.1953 -99.6622 329° Northwest 412 474 38,000  Level Fort Worth Center
04:13PM 32.2942 -99.7308 330° Northwest 412 474 38,000  Level Fort Worth Center
04:14PM 32.3931 -99.8022 329° Northwest 412 474 38,000  Level Fort Worth Center
04:15PM 32.4856 -99.8786 325° Northwest 412 474 38,000  Level Fort Worth Center
04:16PM 32.5544 -99.9792 309° West 398 458 38,000  Level Fort Worth Center
04:17PM 32.6358 -100.0875 312° West 398 458 38,000  Level Fort Worth Center
04:18PM 32.7044 -100.1883 309° West 398 458 38,000  Level Fort Worth Center
04:19PM 32.7753 -100.2869 311° West 393 452 38,000  Level Fort Worth Center
04:20PM 32.8419 -100.3806 310° West 383 441 38,000  Level Fort Worth Center
04:21PM 32.9106 -100.4792 310° West 383 441 38,000  Level Fort Worth Center
04:22PM 32.9792 -100.5758 310° West 383 441 38,000  Level Fort Worth Center
04:23PM 33.0475 -100.6772 309° West 383 441 38,000  Level Fort Worth Center
04:24PM 33.1139 -100.7739 309° West 383 441 38,000  Level Fort Worth Center
04:25PM 33.1822 -100.8708 310° West 383 441 38,000  Level Fort Worth Center
04:26PM 33.2525 -100.9706 310° West 383 441 38,000  Level Fort Worth Center
04:27PM 33.3206 -101.0678 310° West 383 441 38,000  Level Fort Worth Center
04:28PM 33.3867 -101.1675 308° West 388 447 38,000  Level Fort Worth Center
04:29PM 33.4544 -101.2675 309° West 388 447 38,000  Level Fort Worth Center
04:30PM 33.5203 -101.3650 309° West 388 447 38,000  Level Fort Worth Center
04:31PM 33.5881 -101.4678 308° West 388 447 38,000  Level Fort Worth Center
04:32PM 33.6558 -101.5658 310° West 388 447 38,000  Level Fort Worth Center
04:33PM 33.7214 -101.6636 309° West 383 441 38,000  Level Fort Worth Center
04:34PM 33.7908 -101.7619 310° West 389 448 38,000  Level Fort Worth Center
04:35PM 33.8503 -101.8550 308° West 382 440 38,000  Level Fort Worth Center
04:37PM 33.9608 -102.0247 308° West 377 434 38,000  Level Albuquerque Center
04:38PM 34.0322 -102.1306 309° West 379 436 38,000  Level Albuquerque Center
04:39PM 34.0978 -102.2292 309° West 378 435 38,000  Level Albuquerque Center
04:40PM 34.1633 -102.3311 308° West 383 441 38,000  Level Albuquerque Center
04:41PM 34.2392 -102.4467 308° West 383 441 38,000  Level Albuquerque Center
04:42PM 34.3047 -102.5464 309° West 381 438 38,000  Level Albuquerque Center
04:43PM 34.3697 -102.6467 308° West 379 436 38,000  Level Albuquerque Center
04:44PM 34.4361 -102.7486 308° West 381 438 38,000  Level Albuquerque Center
04:45PM 34.5136 -102.8664 309° West 380 437 38,000  Level Albuquerque Center
04:47PM 34.5664 -102.9786 300° West 378 435 38,000  Level Albuquerque Center
04:48PM 34.6247 -103.0864 303° West 379 436 38,000  Level Albuquerque Center
04:49PM 34.6811 -103.1978 302° West 383 441 38,000  Level Albuquerque Center
04:50PM 34.7397 -103.3069 303° West 382 440 38,000  Level Albuquerque Center
04:51PM 34.7961 -103.4178 302° West 382 440 38,000  Level Albuquerque Center
04:52PM 34.8528 -103.5281 302° West 381 438 38,000  Level Albuquerque Center
04:53PM 34.9183 -103.6569 302° West 380 437 38,000  Level Albuquerque Center
04:54PM 34.9744 -103.7681 302° West 382 440 38,000  Level Albuquerque Center
04:55PM 35.0311 -103.8789 302° West 382 440 38,000  Level Albuquerque Center
04:56PM 35.0875 -103.9881 302° West 386 444 38,000  Level Albuquerque Center
04:57PM 35.1439 -104.0983 302° West 384 442 38,000  Level Albuquerque Center
04:58PM 35.2003 -104.2103 302° West 385 443 38,000  Level Albuquerque Center
04:59PM 35.2681 -104.3467 301° West 390 449 38,000  Level Albuquerque Center
05:00PM 35.3253 -104.4611 302° West 394 453 38,000  Level Albuquerque Center
05:01PM 35.3783 -104.5714 301° West 394 453 38,000  Level Albuquerque Center
05:02PM 35.4358 -104.6861 302° West 392 451 38,000  Level Albuquerque Center
05:03PM 35.5025 -104.8211 301° West 393 452 38,000  Level Albuquerque Center
05:04PM 35.5597 -104.9378 301° West 395 455 38,000  Level Albuquerque Center
05:05PM 35.6167 -105.0539 301° West 395 455 38,000  Level Albuquerque Center
05:06PM 35.6728 -105.1722 300° West 396 456 38,000  Level Albuquerque Center
05:07PM 35.7194 -105.2967 295° West 398 458 38,000  Level Albuquerque Center
05:08PM 35.7669 -105.4194 296° West 396 456 38,000  Level Albuquerque Center
05:09PM 35.8144 -105.5425 295° West 396 456 38,000  Level Albuquerque Center
05:10PM 35.8683 -105.6839 295° West 396 456 38,000  Level Albuquerque Center
05:11PM 35.9153 -105.8053 296° West 395 455 38,000  Level Albuquerque Center
05:12PM 35.9608 -105.9278 295° West 394 453 38,000  Level Albuquerque Center
05:13PM 36.0056 -106.0506 294° West 394 453 38,000  Level Albuquerque Center
05:14PM 36.0536 -106.1747 296° West 399 459 38,000  Level Albuquerque Center
05:15PM 36.0997 -106.3006 294° West 403 464 38,000  Level Albuquerque Center
05:17PM 36.1556 -106.4497 295° West 401 461 38,000  Level Albuquerque Center
05:18PM 36.2058 -106.5847 295° West 401 461 38,000  Level Albuquerque Center
05:19PM 36.2494 -106.7044 294° West 400 460 38,000  Level Albuquerque Center
05:20PM 36.2933 -106.8267 294° West 403 464 38,000  Level Albuquerque Center
05:21PM 36.3458 -106.9683 295° West 405 466 38,000  Level Albuquerque Center
05:22PM 36.3894 -107.0889 294° West 403 464 38,000  Level Albuquerque Center
05:23PM 36.4411 -107.2317 294° West 405 466 38,000  Level Albuquerque Center
05:24PM 36.4842 -107.3544 294° West 405 466 38,000  Level Albuquerque Center
05:25PM 36.5353 -107.4969 294° West 405 466 38,000  Level Albuquerque Center
05:26PM 36.5797 -107.6186 294° West 404 465 38,000  Level Albuquerque Center
05:27PM 36.6300 -107.7619 294° West 405 466 38,000  Level Albuquerque Center
05:28PM 36.6800 -107.9036 294° West 404 465 38,000  Level Denver Center
05:29PM 36.7300 -108.0450 294° West 403 464 38,000  Level Denver Center
05:30PM 36.7731 -108.1669 294° West 404 465 38,000  Level Denver Center
05:31PM 36.8233 -108.3103 294° West 404 465 38,000  Level Denver Center
05:32PM 36.8664 -108.4303 294° West 400 460 38,000  Level Denver Center
05:33PM 36.9158 -108.5703 294° West 396 456 38,000  Level Denver Center
05:34PM 36.9583 -108.6933 293° West 401 461 38,000  Level Denver Center
05:35PM 37.0081 -108.8361 294° West 402 463 38,000  Level Denver Center
05:36PM 37.0500 -108.9592 293° West 403 464 38,000  Level Denver Center
05:37PM 37.0994 -109.1019 294° West 402 463 38,000  Level Denver Center
05:38PM 37.1425 -109.2253 294° West 404 465 38,000  Level Denver Center
05:39PM 37.1914 -109.3706 293° West 405 466 38,000  Level Denver Center
05:40PM 37.2336 -109.4947 293° West 405 466 38,000  Level Denver Center
05:42PM 37.2833 -109.6389 293° West 404 465 38,000  Level Denver Center
05:43PM 37.3256 -109.7644 293° West 407 468 38,000  Level Denver Center
05:44PM 37.3753 -109.9111 293° West 410 472 38,000  Level Denver Center
05:45PM 37.4178 -110.0381 293° West 412 474 38,000  Level Denver Center
05:46PM 37.4669 -110.1883 292° West 417 480 38,000  Level Denver Center
05:47PM 37.5100 -110.3158 293° West 414 476 38,000  Level Denver Center
05:48PM 37.5600 -110.4678 293° West 420 483 38,000  Level Denver Center
05:49PM 37.6019 -110.5981 292° West 421 484 38,000  Level Denver Center
05:50PM 37.6461 -110.7356 292° West 424 488 38,000  Level Denver Center
05:51PM 37.6917 -110.8739 293° West 427 491 38,000  Level Denver Center
05:52PM 37.7461 -111.0406 292° West 428 493 38,000  Level Denver Center
05:53PM 37.7914 -111.1811 292° West 432 497 38,000  Level Denver Center
05:54PM 37.8367 -111.3206 292° West 431 496 38,000  Level Denver Center
05:55PM 37.8903 -111.4906 292° West 434 499 38,000  Level Salt Lake Center
05:56PM 37.9350 -111.6308 292° West 432 497 38,000  Level Salt Lake Center
05:57PM 37.9781 -111.7717 291° West 430 495 38,000  Level Salt Lake Center
05:58PM 38.0219 -111.9114 292° West 429 494 38,000  Level Salt Lake Center
05:59PM 38.0769 -112.0797 293° West 431 496 38,000  Level Salt Lake Center
06:00PM 38.1200 -112.2206 291° West 431 496 38,000  Level Salt Lake Center
06:01PM 38.1631 -112.3606 291° West 429 494 38,000  Level Salt Lake Center
06:02PM 38.2058 -112.5003 291° West 428 493 38,000  Level Salt Lake Center
06:03PM 38.2489 -112.6406 290° West 428 493 38,000  Level Salt Lake Center
06:04PM 38.2498 -112.6517 290° West  Level FlightAware Approximate
06:04PM 38.3008 -112.8114 291° West 433 498 38,000  Level Salt Lake Center
06:05PM 38.3428 -112.9528 291° West 431 496 38,000  Level Salt Lake Center
06:06PM 38.3536 -113.1058 275° West 440 506 38,000  Level Salt Lake Center
06:08PM 38.3425 -113.2619 265° West 443 510 38,000  Level Salt Lake Center
06:09PM 38.3306 -113.4167 264° West 443 510 38,000  Level Salt Lake Center
06:10PM 38.3164 -113.6047 265° West 447 514 38,000  Level Salt Lake Center
06:11PM 38.3044 -113.7606 264° West 444 511 38,000  Level Salt Lake Center
06:12PM 38.2911 -113.9164 264° West 445 512 38,000  Level Salt Lake Center
06:13PM 38.2781 -114.0747 264° West 449 517 38,000  Level Salt Lake Center
06:14PM 38.2653 -114.2317 264° West 449 517 38,000  Level Salt Lake Center
06:15PM 38.2503 -114.3892 263° West 451 519 38,000  Level Salt Lake Center
06:16PM 38.2381 -114.5789 265° West 450 518 38,000  Level Salt Lake Center
06:17PM 38.2289 -114.7389 266° West 454 522 38,000  Level Salt Lake Center
06:18PM 38.2186 -114.8967 265° West 451 519 38,000  Level Salt Lake Center
06:19PM 38.2094 -115.0547 266° West 450 518 38,000  Level Salt Lake Center
06:20PM 38.1981 -115.2128 265° West 450 518 38,000  Level Salt Lake Center
06:21PM 38.1881 -115.3847 266° West 446 513 38,000  Level Salt Lake Center
06:22PM 38.1775 -115.5408 265° West 444 511 38,000  Level Salt Lake Center
06:23PM 38.1661 -115.6958 265° West 441 507 38,000  Level Salt Lake Center
06:24PM 38.1556 -115.8514 265° West 441 507 38,000  Level Salt Lake Center
06:25PM 38.1422 -116.0372 265° West 441 507 38,000  Level Salt Lake Center
06:26PM 38.1308 -116.1914 265° West 440 506 38,000  Level Salt Lake Center
06:27PM 38.1183 -116.3478 264° West 442 509 38,000  Level Salt Lake Center
06:28PM 38.1133 -116.4092 264° West 441 507 38,000  Level Oakland Center
06:28PM 38.1069 -116.5014 265° West 440 506 38,000  Level Salt Lake Center
06:29PM 38.0947 -116.6544 264° West 436 502 38,000  Level Salt Lake Center
06:30PM 38.0828 -116.8078 264° West 436 502 38,000  Level Salt Lake Center
06:31PM 38.0706 -116.9617 264° West 436 502 38,000  Level Salt Lake Center
06:32PM 38.0656 -117.0222 264° West 435 501 38,000  Level Oakland Center
06:33PM 38.0519 -117.1792 264° West 435 501 38,000  Level Oakland Center
06:34PM 38.0392 -117.3397 264° West 442 509 38,000  Level Oakland Center
06:35PM 38.0264 -117.4931 264° West 436 502 38,000  Level Oakland Center
06:36PM 38.0131 -117.6456 264° West 434 499 38,000  Level Oakland Center
06:37PM 38.0000 -117.7992 264° West 438 504 38,000  Level Oakland Center
06:38PM 37.9806 -117.9831 262° West 439 505 38,000  Level Oakland Center
06:39PM 37.9639 -118.1353 262° West 437 503 38,000  Level Oakland Center
06:40PM 37.9472 -118.2883 262° West 438 504 38,000  Level Oakland Center
06:41PM 37.9303 -118.4389 262° West 434 499 38,000  Level Oakland Center
06:42PM 37.9133 -118.5903 262° West 435 501 38,000  Level Oakland Center
06:43PM 37.8967 -118.7417 262° West 433 498 38,000  Level Oakland Center
06:44PM 37.8808 -118.8928 262° West 433 498 38,000  Level Oakland Center
06:45PM 37.8633 -119.0428 262° West 434 499 38,000  Level Oakland Center
06:46PM 37.8419 -119.2253 262° West 437 503 38,000  Level Oakland Center
06:47PM 37.8244 -119.3769 262° West 437 503 38,000  Level Oakland Center
06:48PM 37.8081 -119.5267 262° West 429 494 38,000  Level Oakland Center
06:49PM 37.7900 -119.6775 261° West 434 499 38,000  Level Oakland Center
06:50PM 37.7708 -119.8289 261° West 436 502 38,000  Level Oakland Center
06:51PM 37.7522 -119.9819 261° West 441 507 38,100 -660 Climbing Oakland Center
06:52PM 37.7342 -120.1325 261° West 436 502 36,700 -1,440 Descending Oakland Center
06:53PM 37.7172 -120.2761 262° West 421 484 35,200 -1,500 Descending Oakland Center
06:54PM 37.6972 -120.4275 261° West 428 493 33,600 -2,340 Descending Oakland Center
06:55PM 37.6725 -120.6147 261° West 446 513 30,500 -2,880 Descending Oakland Center
06:56PM 37.6514 -120.7725 260° West 454 522 27,700 -2,760 Descending Oakland Center
06:57PM 37.6308 -120.9278 261° West 450 518 24,900 -3,060 Descending Oakland Center
06:58PM 37.6167 -121.0333 260° West 452 520 22,800 -3,720 Descending Northern Cal TRACON
06:59PM 37.6000 -121.1833 262° West 446 513 19,100 -3,600 Descending Northern Cal TRACON
07:00PM 37.5833 -121.3333 262° West 432 497 15,700 -3,600 Descending Northern Cal TRACON
07:01PM 37.5667 -121.4667 261° West 406 467 11,900 -2,400 Descending Northern Cal TRACON
07:02PM 37.5500 -121.6000 261° West 344 396 11,000 -480 Descending Northern Cal TRACON
07:03PM 37.5333 -121.7000 258° West 300 345 11,000 -660 Level Northern Cal TRACON
07:04PM 37.5167 -121.8000 258° West 302 348 9,700 -1,500 Descending Northern Cal TRACON
07:05PM 37.4833 -121.9000 247° West 289 333 8,100 -840 Descending Northern Cal TRACON
07:06PM 37.5000 -121.9833 284° West 285 328 8,100 -780 Level Northern Cal TRACON
07:07PM 37.5167 -122.0833 282° West 282 325 6,600 -1,800 Descending Northern Cal TRACON
07:08PM 37.5417 -122.1361 301° West 278 320 5,100 -2,280 Descending Oakland Center